Time;durP1;ratioP1;P1;durP2;ratioP2;P2;SDS_P1;SDS_P2;PMS_P1;PMS_P2;Temp;Humidity;BMP_temperature;BMP_pressure;BME280_temperature;BME280_humidity;BME280_pressure;Samples;Min_cycle;Max_cycle;Signal;HPM_P1;HPM_P2
2023/04/02 00:01:36;;;;;;;13.90;10.95;;;5.20;99.90;;;;;;4953739;29;20514;-74
2023/04/02 00:04:21;;;;;;;10.63;9.52;;;5.20;99.90;;;;;;4945222;29;20115;-73
2023/04/02 00:06:48;;;;;;;13.88;9.57;;;5.20;99.90;;;;;;4943933;29;20035;-73
2023/04/02 00:09:14;;;;;;;16.63;10.07;;;5.10;99.90;;;;;;4955344;29;20082;-74
2023/04/02 00:11:43;;;;;;;11.55;9.02;;;5.10;99.90;;;;;;4955134;29;20074;-73
2023/04/02 00:14:23;;;;;;;9.75;8.57;;;5.10;99.90;;;;;;4952614;29;20389;-74
2023/04/02 00:16:50;;;;;;;11.38;9.38;;;5.00;99.90;;;;;;4954611;29;20512;-73
2023/04/02 00:19:35;;;;;;;15.05;9.98;;;5.00;99.90;;;;;;4936368;29;20379;-73
2023/04/02 00:22:02;;;;;;;12.90;9.95;;;5.00;99.90;;;;;;4935901;29;20066;-73
2023/04/02 00:24:27;;;;;;;12.40;9.55;;;4.90;99.90;;;;;;4939274;29;20039;-73
2023/04/02 00:26:54;;;;;;;13.48;9.98;;;4.90;99.90;;;;;;4947151;29;20402;-73
2023/04/02 00:29:20;;;;;;;13.38;10.50;;;4.90;99.90;;;;;;4937584;29;20489;-73
2023/04/02 00:31:49;;;;;;;11.05;9.80;;;4.90;99.90;;;;;;4954681;29;20045;-73
2023/04/02 00:34:22;;;;;;;13.00;9.80;;;4.80;99.90;;;;;;4936591;29;20086;-74
2023/04/02 00:36:49;;;;;;;13.05;9.63;;;4.80;99.90;;;;;;4930892;29;20036;-73
2023/04/02 00:39:27;;;;;;;10.98;9.68;;;4.80;99.90;;;;;;4935778;29;20394;-74
2023/04/02 00:42:04;;;;;;;13.07;9.77;;;4.80;99.90;;;;;;4939870;29;20031;-73
2023/04/02 00:44:43;;;;;;;11.25;10.15;;;4.80;99.90;;;;;;4940200;29;20103;-74
2023/04/02 00:47:25;;;;;;;11.55;10.40;;;4.80;99.90;;;;;;4929990;29;20042;-73
2023/04/02 00:50:10;;;;;;;12.30;10.50;;;4.80;99.90;;;;;;4954738;29;20409;-73
2023/04/02 00:52:37;;;;;;;14.25;10.18;;;4.70;99.90;;;;;;4954142;29;20053;-74
2023/04/02 00:55:22;;;;;;;11.20;10.02;;;4.70;99.90;;;;;;4950736;29;20501;-73
2023/04/02 00:57:49;;;;;;;10.63;9.52;;;4.70;99.90;;;;;;4931621;29;20055;-74
2023/04/02 01:00:20;;;;;;;12.05;9.85;;;4.70;99.90;;;;;;4942731;29;20371;-74
2023/04/02 01:03:11;;;;;;;10.98;9.25;;;4.70;99.90;;;;;;4938469;29;20040;-74
2023/04/02 01:05:37;;;;;;;13.68;10.38;;;4.70;99.90;;;;;;4939396;29;20044;-73
2023/04/02 01:08:36;;;;;;;10.70;9.60;;;4.60;99.90;;;;;;4942922;29;20086;-74
2023/04/02 01:11:44;;;;;;;11.75;9.90;;;4.70;99.90;;;;;;4939365;29;20050;-74
2023/04/02 01:14:24;;;;;;;11.85;9.70;;;4.60;99.90;;;;;;4904484;29;20626;-73
2023/04/02 01:16:59;;;;;;;11.18;10.05;;;4.60;99.90;;;;;;4945806;29;20047;-74
2023/04/02 01:19:57;;;;;;;10.65;9.20;;;4.60;99.90;;;;;;4954000;29;20039;-73
2023/04/02 01:22:57;;;;;;;11.82;10.00;;;4.60;99.90;;;;;;4887260;28;20518;-73
2023/04/02 01:25:39;;;;;;;10.73;9.50;;;4.60;99.90;;;;;;4941357;29;20046;-73
2023/04/02 01:28:20;;;;;;;10.82;8.98;;;4.50;99.90;;;;;;4937407;29;20055;-73
2023/04/02 01:30:51;;;;;;;10.30;9.20;;;4.50;99.90;;;;;;4929802;29;20035;-74
2023/04/02 01:33:21;;;;;;;9.63;8.65;;;4.50;99.90;;;;;;4948576;29;20052;-74
2023/04/02 01:35:54;;;;;;;9.45;8.45;;;4.40;99.90;;;;;;4950619;29;20043;-73
2023/04/02 01:38:26;;;;;;;10.00;9.00;;;4.50;99.90;;;;;;4934469;29;20031;-73
2023/04/02 01:41:06;;;;;;;9.98;8.57;;;4.50;99.90;;;;;;4934266;29;20053;-73
2023/04/02 01:43:43;;;;;;;11.02;9.07;;;4.50;99.90;;;;;;4934465;29;20379;-73
2023/04/02 01:46:32;;;;;;;10.55;7.78;;;4.40;99.90;;;;;;4942515;29;20044;-74
2023/04/02 01:49:01;;;;;;;9.52;8.38;;;4.40;99.90;;;;;;4937122;29;20043;-73
2023/04/02 01:51:31;;;;;;;10.95;8.30;;;4.30;99.90;;;;;;4945969;29;20118;-73
2023/04/02 01:54:00;;;;;;;8.88;7.97;;;4.30;99.90;;;;;;4928602;29;20433;-73
2023/04/02 01:56:27;;;;;;;8.95;8.05;;;4.30;99.90;;;;;;4942455;29;20540;-73
2023/04/02 01:58:53;;;;;;;10.25;8.90;;;4.20;99.90;;;;;;4940122;29;20050;-73
2023/04/02 02:01:23;;;;;;;8.93;7.97;;;4.20;99.90;;;;;;4945233;29;20031;-73
2023/04/02 02:03:50;;;;;;;9.98;7.68;;;4.10;99.90;;;;;;4952065;29;20398;-73
2023/04/02 02:06:18;;;;;;;11.80;8.30;;;4.10;99.90;;;;;;4946690;29;20039;-73
2023/04/02 02:08:54;;;;;;;10.55;7.80;;;4.10;99.90;;;;;;4946982;29;20050;-74
2023/04/02 02:11:25;;;;;;;8.98;7.80;;;4.00;99.90;;;;;;4945011;29;20051;-73
2023/04/02 02:13:56;;;;;;;8.00;7.20;;;3.90;99.90;;;;;;4943871;29;20050;-73
2023/04/02 02:16:23;;;;;;;10.27;7.18;;;3.90;99.90;;;;;;4942946;29;20045;-73
2023/04/02 02:18:51;;;;;;;8.95;7.00;;;3.80;99.90;;;;;;4945898;29;20421;-73
2023/04/02 02:21:27;;;;;;;8.75;7.63;;;3.70;99.90;;;;;;4944221;29;20050;-74
2023/04/02 02:23:54;;;;;;;9.45;6.68;;;3.70;99.90;;;;;;4940761;29;20411;-74
2023/04/02 02:26:23;;;;;;;8.93;7.38;;;3.60;99.90;;;;;;4919045;29;20039;-74
2023/04/02 02:28:50;;;;;;;9.10;6.88;;;3.50;99.90;;;;;;4941663;29;20059;-73
2023/04/02 02:31:26;;;;;;;7.22;6.43;;;3.40;99.90;;;;;;4947719;29;20039;-74
2023/04/02 02:33:57;;;;;;;8.20;7.20;;;3.30;99.90;;;;;;4944341;29;20098;-74
2023/04/02 02:36:51;;;;;;;9.20;6.30;;;3.20;99.90;;;;;;4938785;29;20047;-74
2023/04/02 02:39:24;;;;;;;9.15;6.38;;;3.20;99.90;;;;;;4945246;29;20047;-74
2023/04/02 02:42:03;;;;;;;7.68;6.60;;;3.10;99.90;;;;;;4949480;29;20039;-73
2023/04/02 02:44:34;;;;;;;7.82;6.10;;;3.10;99.90;;;;;;4946839;29;20032;-73
2023/04/02 02:47:18;;;;;;;5.20;2.78;;;3.00;99.90;;;;;;4948483;29;20069;-73
2023/04/02 02:49:51;;;;;;;7.70;6.10;;;3.00;99.90;;;;;;4945269;29;20063;-74
2023/04/02 02:52:21;;;;;;;7.90;5.78;;;2.90;99.90;;;;;;4948168;29;20040;-73
2023/04/02 02:54:55;;;;;;;9.93;6.13;;;2.90;99.90;;;;;;4948184;29;20039;-74
2023/04/02 02:57:26;;;;;;;4.22;2.42;;;2.80;99.90;;;;;;4934792;29;20039;-73
2023/04/02 02:59:54;;;;;;;4.72;2.58;;;2.70;99.90;;;;;;4944693;29;20506;-73
2023/04/02 03:02:20;;;;;;;7.78;5.72;;;2.60;99.90;;;;;;4938904;29;20720;-73
2023/04/02 03:04:47;;;;;;;7.78;5.72;;;2.60;99.90;;;;;;4937772;29;20040;-74
2023/04/02 03:07:15;;;;;;;7.32;5.38;;;2.50;99.90;;;;;;4939285;29;20106;-74
2023/04/02 03:10:03;;;;;;;9.05;5.45;;;2.50;99.90;;;;;;4944471;29;20499;-73
2023/04/02 03:12:38;;;;;;;8.82;5.70;;;2.40;99.90;;;;;;4947157;29;20050;-73
2023/04/02 03:15:18;;;;;;;10.00;6.45;;;2.30;99.90;;;;;;4938855;29;20056;-74
2023/04/02 03:17:50;;;;;;;8.05;5.72;;;2.20;99.90;;;;;;4928106;29;20035;-73
2023/04/02 03:20:24;;;;;;;4.55;3.00;;;2.20;99.90;;;;;;4937285;29;20036;-73
2023/04/02 03:23:21;;;;;;;1.60;1.17;;;2.20;99.90;;;;;;4930372;29;20119;-74
2023/04/02 03:25:51;;;;;;;10.38;6.30;;;2.10;99.90;;;;;;4955514;29;20122;-74
2023/04/02 03:28:26;;;;;;;9.00;6.10;;;2.10;99.90;;;;;;4946273;29;20439;-73
2023/04/02 03:31:02;;;;;;;9.80;6.40;;;2.00;99.90;;;;;;4939216;29;20066;-73
2023/04/02 03:33:46;;;;;;;6.43;3.28;;;2.00;99.90;;;;;;4945140;29;20070;-73
2023/04/02 03:36:12;;;;;;;10.23;5.78;;;1.90;99.90;;;;;;4924945;29;20043;-73
2023/04/02 03:38:45;;;;;;;8.20;5.75;;;1.80;99.90;;;;;;4956880;29;20066;-73
2023/04/02 03:41:31;;;;;;;7.85;5.70;;;1.80;99.90;;;;;;4952947;29;20506;-73
2023/04/02 03:44:06;;;;;;;4.97;2.40;;;1.80;99.90;;;;;;4972434;23;20126;-78
2023/04/02 03:46:45;;;;;;;9.15;3.35;;;1.80;99.90;;;;;;4920337;29;20044;-78
2023/04/02 03:49:24;;;;;;;8.88;6.07;;;1.70;99.90;;;;;;4914637;29;20493;-78
2023/04/02 03:52:13;;;;;;;10.50;6.40;;;1.70;99.90;;;;;;4922705;29;20054;-78
2023/04/02 03:54:43;;;;;;;3.03;1.98;;;1.60;99.90;;;;;;4901432;29;20096;-78
2023/04/02 03:57:32;;;;;;;3.78;2.30;;;1.60;99.90;;;;;;4910481;29;20040;-78
2023/04/02 04:00:15;;;;;;;6.03;2.78;;;1.60;99.90;;;;;;4920430;29;20058;-78
2023/04/02 04:02:59;;;;;;;9.90;6.22;;;1.50;99.90;;;;;;4926263;29;20394;-78
2023/04/02 04:05:46;;;;;;;8.20;6.43;;;1.50;99.90;;;;;;4916829;29;20044;-78
2023/04/02 04:08:36;;;;;;;8.98;6.05;;;1.50;99.90;;;;;;4918881;29;20531;-78
2023/04/02 04:11:12;;;;;;;7.50;6.03;;;1.50;99.90;;;;;;4920030;29;20175;-78
2023/04/02 04:13:56;;;;;;;10.93;6.47;;;1.50;99.90;;;;;;4919248;29;20044;-78
2023/04/02 04:16:33;;;;;;;13.55;6.70;;;1.60;99.90;;;;;;4919662;29;20052;-78
2023/04/02 04:19:31;;;;;;;3.00;2.13;;;1.60;99.90;;;;;;4921359;29;20040;-78
2023/04/02 04:22:16;;;;;;;4.40;1.90;;;1.60;99.90;;;;;;4916741;29;20387;-78
2023/04/02 04:24:46;;;;;;;9.02;6.25;;;1.70;99.90;;;;;;4919859;29;20043;-78
2023/04/02 04:27:23;;;;;;;9.77;6.53;;;1.70;99.90;;;;;;4915798;29;20535;-78
2023/04/02 04:30:04;;;;;;;9.23;6.30;;;1.70;99.90;;;;;;4900482;29;20048;-78
2023/04/02 04:33:03;;;;;;;7.80;5.72;;;1.80;99.90;;;;;;4901275;29;20044;-78
2023/04/02 04:35:58;;;;;;;9.05;5.63;;;1.80;99.90;;;;;;4916500;29;20083;-78
2023/04/02 04:38:43;;;;;;;3.60;1.73;;;1.90;99.90;;;;;;4920160;29;20085;-78
2023/04/02 04:41:21;;;;;;;4.10;2.33;;;1.80;99.90;;;;;;4919852;29;20043;-78
2023/04/02 04:44:01;;;;;;;7.50;1.85;;;1.80;99.90;;;;;;4919191;29;20040;-78
2023/04/02 04:46:58;;;;;;;8.88;5.60;;;1.90;99.90;;;;;;4919840;29;20048;-77
2023/04/02 04:49:43;;;;;;;8.20;5.68;;;1.90;99.90;;;;;;4920103;29;20047;-78
2023/04/02 04:52:30;;;;;;;6.72;5.35;;;2.00;99.90;;;;;;4919585;29;20050;-78
2023/04/02 04:55:17;;;;;;;2.70;1.90;;;1.90;99.90;;;;;;4925942;29;20450;-78
2023/04/02 04:57:47;;;;;;;7.25;5.25;;;1.90;99.90;;;;;;4900395;29;20043;-78
2023/04/02 05:00:26;;;;;;;3.10;2.15;;;1.90;99.90;;;;;;4914746;29;20054;-78
2023/04/02 05:03:02;;;;;;;3.83;2.47;;;1.90;99.90;;;;;;4915084;29;20048;-78
2023/04/02 05:05:43;;;;;;;3.47;1.95;;;1.90;99.90;;;;;;4930919;29;20509;-78
2023/04/02 05:08:29;;;;;;;3.00;1.70;;;1.90;99.90;;;;;;4913179;29;20487;-78
2023/04/02 05:11:36;;;;;;;6.90;4.70;;;1.80;99.90;;;;;;4908376;29;20490;-78
2023/04/02 05:14:26;;;;;;;7.70;4.47;;;1.90;99.90;;;;;;4899299;29;20123;-78
2023/04/02 05:17:08;;;;;;;5.95;2.78;;;1.90;99.90;;;;;;4920230;29;20118;-78
2023/04/02 05:19:44;;;;;;;6.20;4.50;;;1.80;99.90;;;;;;4900073;29;20594;-78
2023/04/02 05:22:24;;;;;;;6.82;4.57;;;1.90;99.90;;;;;;4905699;29;20043;-78
2023/04/02 05:24:54;;;;;;;1.27;1.17;;;1.80;99.90;;;;;;4906615;29;20042;-78
2023/04/02 05:27:26;;;;;;;5.20;3.88;;;1.80;99.90;;;;;;4900124;29;20099;-78
2023/04/02 05:30:20;;;;;;;5.38;2.45;;;1.80;99.90;;;;;;4900047;29;20040;-78
2023/04/02 05:33:06;;;;;;;1.25;1.15;;;1.80;99.90;;;;;;4909167;29;20042;-78
2023/04/02 05:35:40;;;;;;;5.72;2.75;;;1.90;99.90;;;;;;4918355;29;20421;-78
2023/04/02 05:38:21;;;;;;;7.80;4.00;;;1.80;99.90;;;;;;4915489;29;20172;-78
2023/04/02 05:40:52;;;;;;;7.70;4.20;;;1.90;99.90;;;;;;4904613;29;20042;-78
2023/04/02 05:43:21;;;;;;;4.20;1.65;;;1.80;99.90;;;;;;4918120;29;20083;-78
2023/04/02 05:45:54;;;;;;;2.70;1.58;;;1.80;99.90;;;;;;4933365;29;20051;-78
2023/04/02 05:49:03;;;;;;;6.03;3.90;;;1.80;99.90;;;;;;4934762;29;20080;-78
2023/04/02 05:51:46;;;;;;;5.75;3.67;;;1.90;99.90;;;;;;4909084;29;20525;-78
2023/04/02 05:54:32;;;;;;;4.63;2.20;;;1.90;99.90;;;;;;4927622;29;20043;-78
2023/04/02 05:57:05;;;;;;;6.22;3.95;;;1.90;99.90;;;;;;4953841;28;20110;-78
2023/04/02 05:59:48;;;;;;;7.82;4.25;;;1.90;99.90;;;;;;4937337;29;20112;-78
2023/04/02 06:02:43;;;;;;;7.25;3.92;;;1.90;99.90;;;;;;4905430;29;20044;-78
2023/04/02 06:05:24;;;;;;;8.30;4.00;;;1.90;99.90;;;;;;4940336;29;20047;-78
2023/04/02 06:08:00;;;;;;;5.30;3.95;;;1.90;99.90;;;;;;4933109;29;20055;-78
2023/04/02 06:10:29;;;;;;;7.00;4.00;;;2.00;99.90;;;;;;4917370;29;20054;-78
2023/04/02 06:13:16;;;;;;;8.18;4.10;;;2.00;99.90;;;;;;4914313;29;20051;-78
2023/04/02 06:15:43;;;;;;;4.57;1.75;;;2.00;99.90;;;;;;4899960;29;20111;-78
2023/04/02 06:18:22;;;;;;;7.50;3.72;;;2.10;99.90;;;;;;4933500;29;20058;-78
2023/04/02 06:20:47;;;;;;;6.28;1.65;;;2.10;99.90;;;;;;4937078;29;20500;-78
2023/04/02 06:23:30;;;;;;;7.45;3.97;;;2.10;99.90;;;;;;4928267;29;20103;-77
2023/04/02 06:26:17;;;;;;;7.57;3.70;;;2.10;99.90;;;;;;4915405;29;20099;-78
2023/04/02 06:28:47;;;;;;;6.10;3.40;;;2.20;99.90;;;;;;4932772;29;20090;-78
2023/04/02 06:31:27;;;;;;;3.95;2.72;;;2.20;99.90;;;;;;4932219;29;20134;-78
2023/04/02 06:33:59;;;;;;;2.20;1.75;;;2.20;99.90;;;;;;4918829;29;20044;-78
2023/04/02 06:36:29;;;;;;;8.93;4.72;;;2.30;99.90;;;;;;4913798;29;20040;-78
2023/04/02 06:39:07;;;;;;;5.07;2.88;;;2.30;99.90;;;;;;4932856;29;20099;-78
2023/04/02 06:41:35;;;;;;;5.57;3.38;;;2.40;99.90;;;;;;4907586;29;21249;-78
2023/04/02 06:44:13;;;;;;;6.07;3.10;;;2.40;99.90;;;;;;4913278;29;20036;-75
2023/04/02 06:50:23;;;;;;;7.97;3.00;;;2.50;99.90;;;;;;4921553;29;20047;-79
2023/04/02 06:52:58;;;;;;;6.95;3.15;;;2.50;99.90;;;;;;4897009;29;20044;-78
2023/04/02 06:55:33;;;;;;;4.93;2.75;;;2.60;99.90;;;;;;4916465;29;20494;-78
2023/04/02 06:57:59;;;;;;;3.58;1.33;;;2.60;99.90;;;;;;4916575;29;20191;-79
2023/04/02 07:00:44;;;;;;;7.72;3.25;;;2.60;99.90;;;;;;4931195;29;20047;-79
2023/04/02 07:03:20;;;;;;;5.95;2.58;;;2.70;99.90;;;;;;4916990;29;20055;-79
2023/04/02 07:05:46;;;;;;;6.97;2.83;;;2.80;99.90;;;;;;4920808;29;20035;-79
2023/04/02 07:08:14;;;;;;;6.10;2.95;;;2.70;99.90;;;;;;4915623;29;20079;-79
2023/04/02 07:10:43;;;;;;;7.57;3.20;;;2.70;99.90;;;;;;4901721;29;20063;-79
2023/04/02 07:13:29;;;;;;;7.10;2.97;;;2.70;99.90;;;;;;4922548;29;20522;-78
2023/04/02 07:15:57;;;;;;;5.72;3.00;;;2.70;99.90;;;;;;4924528;29;20071;-78
2023/04/02 07:18:34;;;;;;;5.03;3.00;;;2.70;99.90;;;;;;4898557;29;20040;-78
2023/04/02 07:21:06;;;;;;;6.53;3.05;;;2.80;99.90;;;;;;4901846;29;20054;-78
2023/04/02 07:23:31;;;;;;;6.00;3.10;;;2.80;99.90;;;;;;4928053;29;20043;-76
2023/04/02 07:26:05;;;;;;;7.45;3.25;;;2.90;99.90;;;;;;4914350;29;20110;-78
2023/04/02 07:28:31;;;;;;;5.18;2.80;;;2.90;99.90;;;;;;4912117;29;20043;-77
2023/04/02 07:30:57;;;;;;;7.40;2.90;;;3.00;99.90;;;;;;4924857;29;20043;-78
2023/04/02 07:33:25;;;;;;;6.97;2.92;;;3.00;99.90;;;;;;4919449;29;20102;-78
2023/04/02 07:35:52;;;;;;;6.95;3.10;;;3.10;99.90;;;;;;4927615;29;20047;-78
2023/04/02 07:38:20;;;;;;;5.22;2.67;;;3.10;99.90;;;;;;4935728;29;20083;-78
2023/04/02 07:40:49;;;;;;;7.90;2.72;;;3.20;99.90;;;;;;4949648;29;20122;-78
2023/04/02 07:43:17;;;;;;;3.13;2.33;;;3.20;99.90;;;;;;4926525;29;20047;-77
2023/04/02 07:45:44;;;;;;;5.22;2.50;;;3.20;99.90;;;;;;4930656;29;20035;-78
2023/04/02 07:48:13;;;;;;;6.05;2.40;;;3.30;99.90;;;;;;4952084;29;20090;-78
2023/04/02 07:50:42;;;;;;;6.63;2.75;;;3.20;99.90;;;;;;4948852;29;20082;-77
2023/04/02 07:53:36;;;;;;;4.85;2.50;;;3.20;99.90;;;;;;4943391;29;20564;-78
2023/04/02 07:56:03;;;;;;;7.32;2.58;;;3.30;99.90;;;;;;4939367;29;20129;-78
2023/04/02 07:58:32;;;;;;;4.32;2.38;;;3.30;99.90;;;;;;4935530;29;20479;-77
2023/04/02 08:00:59;;;;;;;5.28;2.47;;;3.30;99.90;;;;;;4924916;29;20070;-78
2023/04/02 08:03:28;;;;;;;5.07;2.50;;;3.30;99.90;;;;;;4906827;29;20043;-76
2023/04/02 08:06:00;;;;;;;5.35;2.78;;;3.30;99.90;;;;;;4929345;29;20036;-77
2023/04/02 08:08:25;;;;;;;6.97;2.80;;;3.40;99.90;;;;;;4919733;29;20075;-76
2023/04/02 08:10:51;;;;;;;6.05;3.05;;;3.50;99.90;;;;;;4936105;29;20079;-76
2023/04/02 08:13:17;;;;;;;6.22;2.53;;;3.40;99.90;;;;;;4936391;29;20563;-77
2023/04/02 08:15:44;;;;;;;4.50;2.20;;;3.50;99.90;;;;;;4921988;29;20027;-76
2023/04/02 08:18:10;;;;;;;6.05;2.35;;;3.60;99.90;;;;;;4919664;29;20036;-76
2023/04/02 08:20:43;;;;;;;5.45;2.20;;;3.70;99.90;;;;;;4919916;29;20032;-78
2023/04/02 08:23:16;;;;;;;6.72;2.28;;;3.80;99.90;;;;;;4911269;29;20040;-76
2023/04/02 08:25:43;;;;;;;5.20;2.00;;;3.80;99.90;;;;;;4936155;29;20043;-75
2023/04/02 08:28:09;;;;;;;4.65;1.95;;;3.90;99.90;;;;;;4935171;29;20055;-76
2023/04/02 08:30:35;;;;;;;5.05;2.00;;;4.10;99.90;;;;;;4929660;29;20502;-76
2023/04/02 08:33:01;;;;;;;5.75;2.00;;;4.20;99.90;;;;;;4935345;29;20043;-76
2023/04/02 08:35:26;;;;;;;9.82;2.22;;;4.30;99.90;;;;;;4954603;29;20050;-76
2023/04/02 08:37:52;;;;;;;5.25;1.85;;;4.30;99.90;;;;;;4968202;28;20047;-76
2023/04/02 08:40:26;;;;;;;3.97;1.83;;;4.20;99.90;;;;;;4954547;29;20035;-77
2023/04/02 08:43:19;;;;;;;4.50;2.22;;;4.10;99.90;;;;;;4938568;29;20042;-76
2023/04/02 08:45:57;;;;;;;;;;;4.30;99.90;;;;;;4938872;29;20098;-76
2023/04/02 08:48:23;;;;;;;4.63;2.17;;;4.70;99.90;;;;;;4926724;29;19922;-77
2023/04/02 08:50:49;;;;;;;4.15;1.85;;;5.00;99.90;;;;;;4919521;29;20043;-77
2023/04/02 08:53:36;;;;;;;5.18;2.08;;;5.30;99.90;;;;;;4919448;29;20051;-77
2023/04/02 08:56:21;;;;;;;4.32;1.70;;;5.70;99.90;;;;;;4919516;29;20043;-76
2023/04/02 08:58:52;;;;;;;3.05;1.80;;;6.00;99.90;;;;;;4925807;29;20429;-77
2023/04/02 09:01:24;;;;;;;4.65;2.33;;;6.50;99.90;;;;;;4938435;29;20039;-77
2023/04/02 09:03:55;;;;;;;5.60;1.77;;;7.10;99.90;;;;;;4938399;29;20039;-76
2023/04/02 09:06:21;;;;;;;6.55;2.22;;;7.40;99.90;;;;;;4936424;29;20067;-77
2023/04/02 09:08:50;;;;;;;3.92;1.63;;;7.60;99.90;;;;;;4948632;29;20079;-77
2023/04/02 09:11:35;;;;;;;4.03;1.83;;;7.60;99.90;;;;;;4936859;29;20036;-76
2023/04/02 09:14:05;;;;;;;4.65;1.63;;;8.00;99.90;;;;;;4938210;29;20081;-77
2023/04/02 09:16:38;;;;;;;2.83;1.42;;;7.90;99.90;;;;;;4934628;29;20067;-77
2023/04/02 09:19:20;;;;;;;4.20;1.60;;;8.10;99.90;;;;;;4918938;29;20040;-76
2023/04/02 09:22:02;;;;;;;3.88;1.52;;;8.20;99.90;;;;;;4914280;29;20032;-77
2023/04/02 09:24:28;;;;;;;3.05;1.38;;;8.40;99.90;;;;;;4929879;29;20040;-76
2023/04/02 09:26:54;;;;;;;2.50;1.42;;;8.60;99.90;;;;;;4917074;29;20043;-77
2023/04/02 09:29:38;;;;;;;4.05;2.08;;;8.50;99.90;;;;;;4906154;29;20435;-76
2023/04/02 09:32:21;;;;;;;3.45;1.35;;;8.40;99.90;;;;;;4911937;29;20075;-77
2023/04/02 09:34:46;;;;;;;4.18;1.65;;;8.20;97.20;;;;;;4911242;29;20074;-77
2023/04/02 09:37:24;;;;;;;3.85;1.45;;;8.00;99.90;;;;;;4916376;29;20079;-77
2023/04/02 09:39:50;;;;;;;4.13;1.80;;;8.00;99.90;;;;;;4926317;29;20043;-78
2023/04/02 09:42:36;;;;;;;4.88;1.80;;;8.20;99.90;;;;;;4912480;29;20036;-76
2023/04/02 09:45:20;;;;;;;4.00;1.40;;;8.50;99.90;;;;;;4912631;29;20036;-76
2023/04/02 09:47:47;;;;;;;4.07;1.60;;;8.80;98.60;;;;;;4918263;29;20047;-75
2023/04/02 09:50:33;;;;;;;3.70;1.40;;;8.80;99.90;;;;;;4919035;29;20051;-76
2023/04/02 09:53:35;;;;;;;4.13;1.70;;;9.00;96.10;;;;;;4914987;29;20051;-79
2023/04/02 09:59:22;;;;;;;4.95;1.85;;;8.60;99.90;;;;;;4929774;29;20095;-77
2023/04/02 10:02:22;;;;;;;2.85;1.38;;;8.60;99.90;;;;;;4912446;29;20131;-78
2023/04/02 10:04:48;;;;;;;3.40;1.50;;;8.80;99.90;;;;;;4923061;29;20046;-77
2023/04/02 10:07:35;;;;;;;4.20;1.88;;;8.70;98.90;;;;;;4941981;29;20110;-77
2023/04/02 10:10:23;;;;;;;3.22;1.30;;;8.70;92.40;;;;;;4918093;29;20039;-77
2023/04/02 10:12:58;;;;;;;3.45;1.75;;;8.70;93.00;;;;;;4916127;29;20514;-77
2023/04/02 10:15:50;;;;;;;2.95;1.13;;;8.80;99.90;;;;;;4929913;29;20509;-78
2023/04/02 10:18:29;;;;;;;4.85;1.58;;;9.30;99.90;;;;;;4918402;29;20060;-77
2023/04/02 10:20:56;;;;;;;3.58;1.27;;;9.60;92.00;;;;;;4923893;29;20138;-78
2023/04/02 10:23:26;;;;;;;4.78;1.58;;;9.70;90.90;;;;;;4925264;29;20449;-77
2023/04/02 10:26:14;;;;;;;4.35;1.77;;;9.80;91.30;;;;;;4911553;29;20084;-76
2023/04/02 10:28:58;;;;;;;3.53;1.50;;;10.00;87.80;;;;;;4910257;29;20055;-78
2023/04/02 10:31:32;;;;;;;3.92;1.20;;;10.00;87.80;;;;;;4917664;29;20050;-77
2023/04/02 10:34:08;;;;;;;4.10;1.38;;;9.90;84.40;;;;;;4921631;29;20039;-77
2023/04/02 10:36:42;;;;;;;3.10;1.23;;;9.90;79.30;;;;;;4904202;29;20048;-77
2023/04/02 10:39:17;;;;;;;2.50;1.40;;;9.90;80.30;;;;;;4930759;29;20040;-77
2023/04/02 10:41:42;;;;;;;2.40;1.20;;;9.80;79.40;;;;;;4928087;29;20115;-77
2023/04/02 10:44:27;;;;;;;4.38;1.90;;;9.90;82.30;;;;;;4910011;29;20039;-77
2023/04/02 10:47:26;;;;;;;4.28;1.48;;;10.10;82.80;;;;;;4915293;29;20050;-76
2023/04/02 10:50:16;;;;;;;5.50;1.92;;;10.10;79.00;;;;;;4904962;29;20455;-73
2023/04/02 10:53:11;;;;;;;3.33;1.60;;;10.20;86.80;;;;;;4914045;29;20039;-75
2023/04/02 10:55:44;;;;;;;3.92;1.55;;;10.60;93.90;;;;;;4916545;29;20050;-78
2023/04/02 10:58:25;;;;;;;3.33;1.60;;;10.70;83.10;;;;;;4924123;29;20058;-77
2023/04/02 11:00:58;;;;;;;3.08;1.52;;;10.80;80.10;;;;;;4917651;29;20462;-77
2023/04/02 11:03:30;;;;;;;5.20;1.67;;;10.80;80.60;;;;;;4919406;29;20032;-78
2023/04/02 11:06:04;;;;;;;3.53;1.40;;;10.70;82.00;;;;;;4928725;29;20041;-77
2023/04/02 11:08:47;;;;;;;4.32;1.48;;;10.80;82.50;;;;;;4936867;29;20047;-77
2023/04/02 11:11:38;;;;;;;3.45;1.40;;;10.90;77.50;;;;;;4936966;29;20051;-77
2023/04/02 11:14:17;;;;;;;3.55;1.40;;;11.00;78.50;;;;;;4933474;29;20514;-77
2023/04/02 11:16:44;;;;;;;3.47;1.27;;;11.00;77.00;;;;;;4946893;29;20039;-78
2023/04/02 11:19:16;;;;;;;3.55;1.50;;;11.10;76.60;;;;;;4952685;29;20039;-77
2023/04/02 11:21:54;;;;;;;4.80;1.70;;;11.10;78.30;;;;;;4936156;29;20039;-78
2023/04/02 11:24:47;;;;;;;3.35;1.50;;;11.40;78.30;;;;;;4925518;29;20102;-78
2023/04/02 11:27:30;;;;;;;2.35;1.30;;;11.70;76.30;;;;;;4916315;29;20059;-77
2023/04/02 11:30:24;;;;;;;3.88;1.75;;;11.70;73.30;;;;;;4928671;29;20055;-77
2023/04/02 11:32:50;;;;;;;3.55;1.27;;;11.70;73.70;;;;;;4916618;29;20056;-77
2023/04/02 11:35:31;;;;;;;3.75;1.40;;;11.70;73.10;;;;;;4918971;29;20131;-78
2023/04/02 11:37:59;;;;;;;3.67;1.65;;;11.80;72.50;;;;;;4904315;29;20999;-77
2023/04/02 11:40:47;;;;;;;2.95;1.25;;;11.60;75.10;;;;;;4932018;29;20027;-77
2023/04/02 11:43:31;;;;;;;2.45;1.27;;;11.60;73.30;;;;;;4930349;29;20047;-77
2023/04/02 11:46:20;;;;;;;4.93;1.50;;;11.60;72.10;;;;;;4940833;29;20468;-76
2023/04/02 11:48:46;;;;;;;4.07;1.92;;;11.70;74.10;;;;;;4917803;29;20048;-78
2023/04/02 11:51:23;;;;;;;3.05;1.33;;;12.00;74.10;;;;;;4906793;29;20046;-77
2023/04/02 11:53:51;;;;;;;2.78;1.67;;;12.20;71.10;;;;;;4936139;29;20375;-77
2023/04/02 11:56:18;;;;;;;3.85;1.20;;;12.20;72.40;;;;;;4976456;28;20310;-77
2023/04/02 11:59:05;;;;;;;2.80;1.40;;;12.40;72.50;;;;;;4950929;28;20407;-77
2023/04/02 12:01:55;;;;;;;4.20;1.48;;;12.60;71.50;;;;;;4902261;29;20052;-78
2023/04/02 12:05:02;;;;;;;3.33;1.52;;;12.60;70.00;;;;;;4901754;29;20131;-77
2023/04/02 12:07:35;;;;;;;3.55;1.33;;;12.80;70.90;;;;;;4900229;29;20047;-77
2023/04/02 12:10:16;;;;;;;3.75;1.30;;;12.70;68.10;;;;;;4920560;29;20043;-77
2023/04/02 12:12:42;;;;;;;3.67;1.50;;;12.50;70.20;;;;;;4936153;29;20122;-77
2023/04/02 12:15:29;;;;;;;3.75;1.40;;;12.80;70.90;;;;;;4918985;29;20198;-78
2023/04/02 12:18:11;;;;;;;2.70;1.20;;;12.90;68.50;;;;;;4956094;28;20406;-77
2023/04/02 12:20:37;;;;;;;3.22;1.17;;;13.00;69.00;;;;;;4917234;29;20069;-77
2023/04/02 12:23:08;;;;;;;2.58;1.17;;;12.80;67.40;;;;;;4901098;29;20131;-76
2023/04/02 12:25:39;;;;;;;1.90;1.10;;;13.10;69.50;;;;;;4909959;29;20043;-77
2023/04/02 12:28:08;;;;;;;3.28;1.42;;;13.20;68.90;;;;;;4962132;28;20043;-77
2023/04/02 12:30:34;;;;;;;2.47;1.30;;;13.20;67.50;;;;;;4954986;29;20048;-77
2023/04/02 12:33:16;;;;;;;1.98;1.13;;;13.30;69.20;;;;;;4970804;28;20039;-77
2023/04/02 12:35:46;;;;;;;3.15;1.30;;;13.40;68.50;;;;;;4936621;29;20505;-77
2023/04/02 12:38:25;;;;;;;6.20;2.00;;;13.20;67.60;;;;;;4963351;28;20035;-77
2023/04/02 12:40:59;;;;;;;4.93;1.63;;;13.00;66.70;;;;;;4937332;29;20039;-77
2023/04/02 12:43:38;;;;;;;3.17;1.30;;;13.00;69.20;;;;;;4954786;29;20395;-77
2023/04/02 12:46:06;;;;;;;3.75;1.27;;;13.10;68.50;;;;;;4936691;29;20501;-77
2023/04/02 12:48:33;;;;;;;2.47;1.30;;;13.30;67.60;;;;;;4947816;29;20043;-78
2023/04/02 12:51:03;;;;;;;2.47;1.30;;;13.00;66.50;;;;;;4939249;29;20058;-77
2023/04/02 12:53:40;;;;;;;2.80;1.30;;;12.90;69.80;;;;;;4955980;28;20047;-77
2023/04/02 12:56:09;;;;;;;3.22;1.27;;;13.10;68.50;;;;;;4945426;29;20047;-78
2023/04/02 12:58:41;;;;;;;3.80;1.50;;;13.30;66.40;;;;;;4929392;29;20051;-77
2023/04/02 13:01:26;;;;;;;3.58;1.20;;;13.20;66.10;;;;;;4925167;29;20050;-77
2023/04/02 13:04:11;;;;;;;2.45;1.25;;;13.30;65.60;;;;;;4919989;29;20044;-77
2023/04/02 13:06:40;;;;;;;2.20;1.00;;;13.10;65.80;;;;;;4926797;29;20094;-76
2023/04/02 13:09:25;;;;;;;2.72;1.15;;;13.10;64.20;;;;;;4935450;29;20058;-77
2023/04/02 13:11:51;;;;;;;3.15;1.00;;;13.20;65.10;;;;;;4938210;29;20050;-76
2023/04/02 13:14:19;;;;;;;2.35;1.20;;;13.20;65.60;;;;;;4970559;28;20047;-77
2023/04/02 13:16:47;;;;;;;2.83;1.10;;;13.30;66.40;;;;;;4945326;29;20050;-77
2023/04/02 13:19:20;;;;;;;4.63;1.60;;;13.30;65.10;;;;;;4920906;29;20521;-77
2023/04/02 13:21:46;;;;;;;2.58;1.20;;;13.10;65.90;;;;;;4941883;29;20062;-76
2023/04/02 13:24:20;;;;;;;3.45;1.30;;;13.30;66.60;;;;;;4935954;29;20118;-77
2023/04/02 13:26:49;;;;;;;3.28;1.20;;;13.50;66.50;;;;;;4921970;29;20039;-77
2023/04/02 13:29:22;;;;;;;2.67;1.40;;;13.90;68.00;;;;;;4936254;29;20047;-77
2023/04/02 13:31:48;;;;;;;;;;;14.20;66.70;;;;;;4955266;28;20098;-77
2023/04/02 13:34:14;;;;;;;3.97;1.40;;;14.00;66.00;;;;;;4937857;29;20335;-76
2023/04/02 13:36:39;;;;;;;2.72;1.40;;;14.20;67.70;;;;;;4961227;28;20039;-77
2023/04/02 13:39:05;;;;;;;2.38;1.17;;;14.40;66.50;;;;;;4938960;29;20063;-77
2023/04/02 13:41:38;;;;;;;3.50;1.40;;;14.20;65.90;;;;;;4899918;29;20048;-77
2023/04/02 13:44:03;;;;;;;2.30;1.15;;;13.50;65.40;;;;;;4915329;29;20086;-77
2023/04/02 13:46:32;;;;;;;2.88;1.15;;;13.50;66.80;;;;;;4899760;29;20072;-77